Time;durP1;ratioP1;P1;durP2;ratioP2;P2;SDS_P1;SDS_P2;PMS_P1;PMS_P2;Temp;Humidity;BMP_temperature;BMP_pressure;BME280_temperature;BME280_humidity;BME280_pressure;Samples;Min_cycle;Max_cycle;Signal;HPM_P1;HPM_P2
2021/04/01 04:32:01;;;;;;;18.67;10.88;;;;;;;10.01;68.91;100644.53;6260271;22;20027;-78
2021/04/01 06:17:34;;;;;;;20.77;12.05;;;;;;;10.91;66.35;100696.34;6250483;22;20405;-78
2021/04/01 06:20:28;;;;;;;25.70;11.35;;;;;;;11.08;65.72;100700.91;6254549;23;20062;-77
2021/04/01 06:24:14;;;;;;;20.20;12.00;;;;;;;11.25;64.77;100693.06;6251975;23;20019;-78
2021/04/01 07:07:22;;;;;;;19.88;11.25;;;;;;;16.21;48.06;100724.31;6254019;23;20524;-78
2021/04/01 07:13:17;;;;;;;18.75;11.40;;;;;;;16.51;46.70;100713.41;6253580;23;20050;-79
2021/04/01 09:08:08;;;;;;;24.17;15.13;;;;;;;17.52;45.72;100689.44;6229344;23;20091;-78
2021/04/01 09:11:00;;;;;;;24.02;14.77;;;;;;;17.40;45.96;100689.47;6224632;23;20058;-78
2021/04/01 09:33:27;;;;;;;21.30;13.98;;;;;;;18.16;44.76;100675.91;6222434;23;20048;-78
2021/04/01 09:36:20;;;;;;;21.33;15.27;;;;;;;18.20;44.04;100672.91;6223626;23;20023;-79
2021/04/01 10:02:39;;;;;;;;;;;;;;;18.87;42.67;100673.22;6242703;23;20051;-79
2021/04/01 10:13:21;;;;;;;28.27;14.88;;;;;;;19.45;42.62;100670.47;6241632;23;20031;-79
2021/04/01 10:20:34;;;;;;;32.53;17.27;;;;;;;19.70;40.86;100662.16;6225375;23;20452;-80
2021/04/01 10:59:14;;;;;;;39.38;20.08;;;;;;;20.78;37.71;100641.56;6226413;23;20052;-80
2021/04/01 11:05:25;;;;;;;38.75;22.85;;;;;;;21.06;36.00;100627.41;6223049;23;20032;-78
2021/04/01 11:31:06;;;;;;;39.10;21.52;;;;;;;22.54;32.65;100590.59;6230366;23;20437;-78
2021/04/01 11:41:47;;;;;;;37.53;20.48;;;;;;;23.01;29.64;100561.81;6234605;23;20083;-78
2021/04/01 11:48:08;;;;;;;37.33;18.55;;;;;;;22.97;29.45;100557.72;6227862;23;20019;-79
2021/04/01 11:50:36;;;;;;;31.50;16.55;;;;;;;23.06;29.96;100569.50;6226024;23;20020;-81
2021/04/01 11:53:03;;;;;;;35.97;18.10;;;;;;;23.12;29.78;100560.81;6222261;23;20036;-82
2021/04/01 11:55:29;;;;;;;31.45;17.70;;;;;;;23.22;29.41;100561.59;6218384;23;20027;-81
2021/04/01 11:57:56;;;;;;;30.88;17.15;;;;;;;23.30;29.42;100553.59;6194906;23;20342;-83
2021/04/01 12:00:33;;;;;;;30.48;16.60;;;;;;;23.36;28.67;100552.16;6218054;23;20054;-80
2021/04/01 12:04:03;;;;;;;32.03;18.13;;;;;;;23.37;26.88;100552.00;6222494;23;20051;-81
2021/04/01 12:05:57;;;;;;;31.70;17.23;;;;;;;23.41;27.99;100545.28;6209759;23;20024;-80
2021/04/01 12:08:23;;;;;;;30.73;16.58;;;;;;;23.52;27.72;100552.38;6226143;23;20075;-81
2021/04/01 12:10:57;;;;;;;33.78;18.40;;;;;;;23.59;27.59;100536.41;6230851;23;20019;-82
2021/04/01 12:13:24;;;;;;;34.28;20.00;;;;;;;23.68;27.53;100541.75;6236287;23;20025;-80
2021/04/01 12:15:51;;;;;;;28.08;16.45;;;;;;;23.83;27.86;100550.16;6222868;23;20020;-81
2021/04/01 12:18:19;;;;;;;38.28;20.02;;;;;;;23.86;26.68;100541.75;6227061;23;20029;-80
2021/04/01 12:20:47;;;;;;;36.88;18.95;;;;;;;23.84;27.00;100543.75;6240940;23;20036;-88
2021/04/01 12:26:15;;;;;;;30.23;17.33;;;;;;;23.97;27.43;100525.28;6215953;23;20035;-87
2021/04/01 12:28:42;;;;;;;39.53;19.65;;;;;;;24.01;27.15;100526.69;6239401;23;20028;-81
2021/04/01 12:31:17;;;;;;;37.50;18.98;;;;;;;24.04;26.86;100520.97;6239302;23;20008;-85
2021/04/01 12:33:49;;;;;;;31.80;17.50;;;;;;;24.09;25.96;100510.50;6237920;23;20072;-85
2021/04/01 12:36:35;;;;;;;32.60;17.52;;;;;;;24.01;25.23;100518.56;6238838;23;20020;-80
2021/04/01 12:39:12;;;;;;;31.38;15.48;;;;;;;24.03;27.19;100521.97;6237039;23;20076;-82
2021/04/01 12:41:42;;;;;;;26.05;15.27;;;;;;;24.15;26.54;100522.56;6212277;23;20021;-82
2021/04/01 12:44:09;;;;;;;26.50;14.60;;;;;;;24.31;25.83;100516.47;6238646;23;20025;-86
2021/04/01 12:46:38;;;;;;;25.77;14.52;;;;;;;24.42;25.45;100521.63;6238317;23;20035;-79
2021/04/01 12:49:05;;;;;;;27.40;15.27;;;;;;;24.54;25.71;100508.72;6233742;23;20044;-80
2021/04/01 12:51:49;;;;;;;31.42;16.35;;;;;;;24.60;25.75;100508.91;6229043;23;20017;-82
2021/04/01 12:54:23;;;;;;;29.55;16.48;;;;;;;24.59;25.28;100507.19;6228234;23;20031;-81
2021/04/01 12:56:58;;;;;;;33.78;17.67;;;;;;;24.46;24.81;100502.22;6230623;23;20079;-79
2021/04/01 12:59:54;;;;;;;29.58;16.35;;;;;;;24.30;25.72;100495.84;6233825;23;20302;-80
2021/04/01 13:02:23;;;;;;;23.38;14.80;;;;;;;24.35;26.25;100496.22;6233480;23;20028;-79
2021/04/01 13:04:54;;;;;;;30.20;16.25;;;;;;;24.31;25.42;100482.16;6234923;23;20052;-80
2021/04/01 13:08:20;;;;;;;25.65;15.10;;;;;;;24.39;25.80;100487.63;6210574;23;20036;-80
2021/04/01 13:12:35;;;;;;;25.08;14.18;;;;;;;24.54;26.15;100468.09;6232605;23;20047;-80
2021/04/01 13:15:02;;;;;;;29.48;15.77;;;;;;;24.58;25.51;100475.72;6231750;23;20100;-82
2021/04/01 13:17:29;;;;;;;30.45;16.70;;;;;;;24.55;25.74;100470.66;6232011;23;20029;-85
2021/04/01 13:19:57;;;;;;;28.02;15.48;;;;;;;24.54;26.06;100468.94;6209916;23;20063;-84
2021/04/01 13:22:30;;;;;;;32.50;16.77;;;;;;;24.57;26.25;100471.31;6236426;23;20028;-86
2021/04/01 13:25:18;;;;;;;27.08;15.90;;;;;;;24.59;25.75;100455.75;6237204;23;20047;-87
2021/04/01 13:27:45;;;;;;;33.40;16.55;;;;;;;24.59;25.23;100461.16;6237442;23;20037;-84
2021/04/01 13:30:12;;;;;;;27.25;14.80;;;;;;;24.59;25.59;100455.75;6234308;23;20832;-82
2021/04/01 13:33:03;;;;;;;24.20;13.43;;;;;;;24.64;25.51;100453.44;6235070;23;20017;-82
2021/04/01 13:35:47;;;;;;;25.10;12.65;;;;;;;24.67;25.67;100455.81;6222245;23;20032;-85
2021/04/01 13:38:19;;;;;;;23.20;11.30;;;;;;;24.67;25.37;100449.56;6195533;23;20029;-83
2021/04/01 13:40:48;;;;;;;19.77;9.32;;;;;;;24.70;24.86;100449.25;6218697;23;20025;-82
2021/04/01 13:43:17;;;;;;;19.67;9.00;;;;;;;24.79;24.85;100446.41;6194049;23;20490;-80
2021/04/01 13:45:43;;;;;;;19.58;8.40;;;;;;;24.86;25.42;100441.19;6221371;23;20651;-81
2021/04/01 13:48:19;;;;;;;18.17;9.95;;;;;;;24.91;25.26;100443.38;6217593;23;20321;-81
2021/04/01 13:51:02;;;;;;;18.13;9.52;;;;;;;24.92;25.46;100447.78;6189463;23;20059;-80
2021/04/01 13:56:24;;;;;;;14.10;7.28;;;;;;;24.93;24.48;100442.22;6213846;23;20106;-81
2021/04/01 14:10:03;;;;;;;9.25;3.88;;;;;;;24.98;22.12;100429.06;6216340;23;20056;-84
2021/04/01 14:12:31;;;;;;;9.15;4.50;;;;;;;25.00;22.19;100434.31;6219011;23;20044;-85
2021/04/01 14:14:58;;;;;;;11.02;4.50;;;;;;;24.93;22.10;100425.97;6218152;23;20025;-80
2021/04/01 14:17:24;;;;;;;10.98;4.93;;;;;;;24.92;22.23;100434.25;6220920;23;20092;-82
2021/04/01 14:19:55;;;;;;;13.30;5.32;;;;;;;24.87;22.66;100428.50;6221036;23;20055;-81
2021/04/01 14:22:22;;;;;;;13.35;5.72;;;;;;;24.81;22.80;100438.97;6225546;23;20020;-84
2021/04/01 14:24:52;;;;;;;13.65;5.35;;;;;;;24.71;22.80;100423.84;6228418;23;20024;-83
2021/04/01 14:29:56;;;;;;;9.75;5.85;;;;;;;24.63;23.39;100412.97;6227150;23;20021;-84
2021/04/01 14:32:26;;;;;;;17.50;6.63;;;;;;;24.68;23.80;100422.31;6225271;23;20024;-85
2021/04/01 14:34:56;;;;;;;15.10;6.50;;;;;;;24.68;24.04;100427.72;6229285;23;20056;-82
2021/04/01 14:37:30;;;;;;;13.63;6.13;;;;;;;24.62;23.89;100422.94;6228310;23;20043;-82
2021/04/01 14:40:01;;;;;;;12.68;5.35;;;;;;;24.55;23.08;100427.34;6223789;23;20047;-87
2021/04/01 14:42:35;;;;;;;12.93;5.68;;;;;;;24.56;23.26;100425.44;6231601;23;20015;-86
2021/04/01 14:45:04;;;;;;;10.00;5.05;;;;;;;24.54;22.81;100425.63;6231866;23;20051;-84
2021/04/01 14:47:31;;;;;;;8.82;4.65;;;;;;;24.52;22.76;100421.38;6234929;23;20020;-80
2021/04/01 14:50:04;;;;;;;12.88;5.25;;;;;;;24.52;22.68;100422.22;6207153;23;20028;-81
2021/04/01 14:52:30;;;;;;;12.15;5.50;;;;;;;24.46;23.50;100412.88;6223238;23;20044;-80
2021/04/01 14:54:58;;;;;;;12.45;5.38;;;;;;;24.48;23.83;100423.56;6222123;23;20025;-82
2021/04/01 14:57:25;;;;;;;14.90;5.78;;;;;;;24.47;24.07;100419.16;6220629;23;20016;-80
2021/04/01 14:59:51;;;;;;;11.70;5.25;;;;;;;24.43;23.67;100418.63;6220948;23;20578;-81
2021/04/01 15:02:18;;;;;;;12.73;6.43;;;;;;;24.41;24.19;100414.38;6219277;23;20044;-81
2021/04/01 15:04:46;;;;;;;11.95;6.18;;;;;;;24.34;24.66;100400.66;6218077;23;20048;-83
2021/04/01 15:07:12;;;;;;;17.30;7.30;;;;;;;24.36;24.60;100406.75;6217592;23;20021;-84
2021/04/01 15:09:39;;;;;;;15.27;6.32;;;;;;;24.59;24.42;100412.44;6219560;23;20036;-83
2021/04/01 15:12:07;;;;;;;15.85;6.30;;;;;;;25.14;24.19;100407.44;6191741;23;20028;-84
2021/04/01 15:14:33;;;;;;;15.30;6.35;;;;;;;25.26;24.38;100416.09;6225108;23;20084;-84
2021/04/01 15:17:02;;;;;;;19.95;7.55;;;;;;;25.02;24.67;100418.75;6202903;23;20401;-79
2021/04/01 15:19:28;;;;;;;17.05;7.07;;;;;;;24.78;25.12;100405.94;6228036;23;20071;-83
2021/04/01 15:21:55;;;;;;;16.85;7.47;;;;;;;24.61;25.11;100412.28;6229227;23;20075;-81
2021/04/01 15:24:22;;;;;;;14.10;6.47;;;;;;;24.44;25.70;100408.63;6227763;23;20028;-82
2021/04/01 15:26:49;;;;;;;20.55;6.47;;;;;;;24.29;25.53;100404.84;6200649;23;20028;-83
2021/04/01 15:29:15;;;;;;;12.20;6.53;;;;;;;24.10;25.42;100404.00;6220500;23;20023;-81
2021/04/01 15:31:43;;;;;;;16.38;6.43;;;;;;;24.02;25.87;100408.50;6220023;23;20071;-84
2021/04/01 15:34:11;;;;;;;16.63;6.67;;;;;;;23.95;26.28;100407.44;6222386;23;20024;-82
2021/04/01 15:36:37;;;;;;;15.70;7.40;;;;;;;23.83;26.56;100404.13;6222701;23;20471;-85
2021/04/01 15:39:05;;;;;;;16.23;7.32;;;;;;;23.77;26.26;100402.06;6192357;23;20120;-80
2021/04/01 15:41:31;;;;;;;14.73;6.53;;;;;;;23.72;26.16;100417.91;6217793;23;20021;-84
2021/04/01 15:43:58;;;;;;;18.63;6.60;;;;;;;23.67;26.47;100409.41;6192275;23;20470;-80
2021/04/01 15:46:25;;;;;;;18.40;6.72;;;;;;;23.55;26.91;100413.38;6218913;23;20044;-80
2021/04/01 15:48:52;;;;;;;15.80;7.25;;;;;;;23.43;27.06;100407.31;6220418;23;20031;-80
2021/04/01 15:51:18;;;;;;;20.08;7.43;;;;;;;23.38;27.22;100410.47;6221719;23;20039;-80
2021/04/01 15:53:45;;;;;;;20.00;7.95;;;;;;;23.26;27.60;100400.06;6220526;23;20017;-81
2021/04/01 15:56:11;;;;;;;23.63;7.60;;;;;;;23.21;27.85;100411.31;6222790;23;20028;-84
2021/04/01 15:58:39;;;;;;;21.48;7.43;;;;;;;23.15;28.14;100406.50;6225557;23;20100;-80
2021/04/01 16:01:08;;;;;;;21.42;7.95;;;;;;;23.09;28.11;100412.53;6232554;23;20104;-79
2021/04/01 16:03:35;;;;;;;22.42;8.05;;;;;;;23.07;28.38;100411.81;6230265;23;20031;-85
2021/04/01 16:06:02;;;;;;;21.38;7.82;;;;;;;23.01;28.58;100412.41;6229224;23;20036;-81
2021/04/01 16:08:29;;;;;;;22.60;8.20;;;;;;;22.93;29.14;100404.25;6234982;23;20028;-85
2021/04/01 16:10:57;;;;;;;20.08;8.15;;;;;;;22.89;29.10;100413.63;6237218;23;20073;-81
2021/04/01 16:13:24;;;;;;;22.02;7.95;;;;;;;22.79;29.18;100411.00;6236272;23;20036;-80
2021/04/01 16:15:50;;;;;;;18.83;8.23;;;;;;;22.78;29.13;100403.91;6233745;23;20137;-79
2021/04/01 16:18:17;;;;;;;19.63;8.82;;;;;;;22.72;29.13;100424.19;6230382;23;20051;-80
2021/04/01 16:20:43;;;;;;;18.30;7.90;;;;;;;22.64;29.55;100416.00;6231807;23;20048;-80
2021/04/01 16:23:10;;;;;;;22.55;8.05;;;;;;;22.55;29.82;100408.78;6226011;23;20017;-81
2021/04/01 16:25:37;;;;;;;16.60;7.88;;;;;;;22.51;30.13;100410.06;6222290;23;20040;-79
2021/04/01 16:28:04;;;;;;;16.83;7.57;;;;;;;22.46;29.84;100415.09;6222539;23;20036;-84
2021/04/01 16:30:32;;;;;;;20.10;8.50;;;;;;;22.40;29.84;100411.13;6221828;23;20085;-84
2021/04/01 16:33:07;;;;;;;19.60;6.85;;;;;;;22.38;30.58;100420.34;6223464;23;20052;-81
2021/04/01 16:35:33;;;;;;;20.98;7.35;;;;;;;22.30;30.92;100417.56;6228415;23;20020;-81
2021/04/01 16:38:01;;;;;;;20.67;8.55;;;;;;;22.22;30.54;100420.97;6230283;23;20024;-80
2021/04/01 16:40:28;;;;;;;24.75;9.05;;;;;;;22.17;30.49;100423.28;6226016;23;20017;-85
2021/04/01 16:42:56;;;;;;;25.33;8.70;;;;;;;22.08;30.78;100416.03;6226429;23;20037;-79
2021/04/01 16:45:23;;;;;;;26.30;9.23;;;;;;;22.07;30.67;100419.72;6228156;23;20048;-79
2021/04/01 16:47:50;;;;;;;21.70;8.65;;;;;;;21.98;31.19;100421.44;6225742;23;20039;-81
2021/04/01 16:50:22;;;;;;;25.50;9.00;;;;;;;21.91;31.26;100422.97;6231070;23;20016;-83
2021/04/01 16:53:07;;;;;;;18.88;8.45;;;;;;;21.86;31.54;100427.13;6233362;23;20020;-79
2021/04/01 16:55:35;;;;;;;22.20;8.75;;;;;;;21.69;31.69;100423.31;6209478;23;20095;-80
2021/04/01 16:58:03;;;;;;;24.73;9.40;;;;;;;21.68;32.14;100427.84;6205573;23;20072;-80
2021/04/01 17:00:31;;;;;;;23.45;9.23;;;;;;;21.65;32.38;100427.28;6202463;23;20059;-80
2021/04/01 17:02:58;;;;;;;20.75;8.73;;;;;;;21.60;32.62;100429.53;6192831;23;20537;-80
2021/04/01 17:05:26;;;;;;;27.95;10.02;;;;;;;21.52;32.99;100432.09;6219467;23;20052;-80
2021/04/01 17:07:53;;;;;;;21.02;9.38;;;;;;;21.48;33.04;100436.06;6216743;23;20100;-81
2021/04/01 17:10:19;;;;;;;21.95;9.27;;;;;;;21.33;33.36;100428.38;6213122;23;20024;-79
2021/04/01 17:12:46;;;;;;;26.20;10.10;;;;;;;21.32;33.72;100442.84;6215179;23;20081;-80
2021/04/01 17:15:13;;;;;;;25.23;10.48;;;;;;;21.24;34.02;100434.63;6215695;23;20386;-84
2021/04/01 17:17:42;;;;;;;25.90;10.75;;;;;;;21.15;34.26;100435.41;6211934;23;20035;-87
2021/04/01 17:20:11;;;;;;;28.13;12.18;;;;;;;21.08;34.57;100445.06;6211503;23;20063;-81
2021/04/01 17:22:41;;;;;;;28.48;11.63;;;;;;;21.07;34.56;100442.50;6214769;23;20419;-82
2021/04/01 17:25:11;;;;;;;24.35;12.50;;;;;;;21.04;34.83;100448.16;6219118;23;20099;-79
2021/04/01 17:27:39;;;;;;;28.20;14.55;;;;;;;20.98;34.94;100441.47;6215060;23;20024;-82
2021/04/01 17:30:09;;;;;;;28.95;13.70;;;;;;;20.87;35.19;100438.88;6195624;23;20016;-85
2021/04/01 17:32:37;;;;;;;31.60;14.40;;;;;;;20.80;35.56;100440.41;6222405;23;20668;-79
2021/04/01 17:35:07;;;;;;;27.52;12.98;;;;;;;20.73;36.62;100450.03;6218171;23;20135;-82
2021/04/01 17:37:34;;;;;;;34.57;15.57;;;;;;;20.67;36.53;100448.72;6214501;23;20020;-80
2021/04/01 17:40:00;;;;;;;28.98;15.32;;;;;;;20.58;36.69;100453.09;6217927;23;20024;-80
2021/04/01 17:42:26;;;;;;;35.78;15.70;;;;;;;20.51;36.74;100449.22;6220244;23;20051;-80
2021/04/01 17:44:52;;;;;;;32.65;16.35;;;;;;;20.44;36.84;100442.69;6215759;23;20055;-81
2021/04/01 17:47:18;;;;;;;31.58;16.15;;;;;;;20.37;37.09;100449.56;6188435;23;20102;-81
2021/04/01 17:49:44;;;;;;;31.52;14.98;;;;;;;20.27;37.40;100445.94;6210329;23;20445;-79
2021/04/01 17:52:17;;;;;;;29.30;15.23;;;;;;;20.18;37.43;100447.56;6213719;23;20020;-80
2021/04/01 17:54:44;;;;;;;28.02;15.77;;;;;;;20.09;37.80;100461.81;6211938;23;20458;-81
2021/04/01 17:57:10;;;;;;;30.95;15.95;;;;;;;19.99;38.13;100463.56;6214815;23;20115;-83
2021/04/01 18:02:23;;;;;;;34.40;14.82;;;;;;;19.88;39.13;100471.69;6213563;23;20024;-81
2021/04/01 18:24:25;;;;;;;35.10;19.20;;;;;;;19.26;40.35;100510.81;6212916;23;20043;-81
2021/04/01 18:29:29;;;;;;;56.50;33.53;;;;;;;19.08;42.44;100516.81;6215067;23;20120;-83
2021/04/01 18:31:58;;;;;;;72.53;39.70;;;;;;;19.02;43.24;100528.06;6185107;23;20099;-85
2021/04/01 18:37:18;;;;;;;72.63;39.72;;;;;;;18.82;44.12;100538.53;6215307;23;20044;-84
2021/04/01 18:39:52;;;;;;;70.85;41.42;;;;;;;18.72;44.61;100536.72;6217224;23;20028;-81
2021/04/01 18:42:23;;;;;;;74.63;43.53;;;;;;;18.66;45.13;100555.97;6218060;23;20059;-82
2021/04/01 18:44:57;;;;;;;80.10;45.42;;;;;;;18.58;45.13;100556.50;6219382;23;20331;-80
2021/04/01 18:49:55;;;;;;;74.55;43.47;;;;;;;18.42;45.41;100572.06;6225372;23;20422;-84
2021/04/01 18:52:27;;;;;;;78.30;43.90;;;;;;;18.34;45.58;100585.22;6222320;23;20059;-80
2021/04/01 18:55:26;;;;;;;76.63;42.80;;;;;;;18.28;46.22;100586.53;6216142;23;20324;-80
2021/04/01 18:57:59;;;;;;;73.47;41.53;;;;;;;18.20;45.54;100588.94;6211452;23;20024;-85
2021/04/01 19:00:33;;;;;;;68.47;39.10;;;;;;;18.11;45.78;100595.84;6211831;23;20031;-82
2021/04/01 19:03:01;;;;;;;70.55;39.20;;;;;;;18.00;45.87;100601.16;6189332;23;20044;-81
2021/04/01 19:05:50;;;;;;;72.57;39.92;;;;;;;17.94;45.94;100607.00;6214943;23;20063;-83
2021/04/01 19:09:05;;;;;;;66.85;39.45;;;;;;;17.85;46.59;100615.69;6208743;23;20024;-81
2021/04/01 19:24:45;;;;;;;45.72;26.60;;;;;;;17.30;46.06;100645.59;6226469;23;20027;-83
2021/04/01 19:27:14;;;;;;;42.78;25.13;;;;;;;17.16;46.20;100647.38;6222926;23;20040;-85
2021/04/01 19:30:00;;;;;;;49.72;25.63;;;;;;;17.00;46.92;100651.28;6217568;23;20013;-85
2021/04/01 19:32:27;;;;;;;40.17;24.38;;;;;;;16.84;47.35;100660.31;6215218;23;20048;-81
2021/04/01 19:34:55;;;;;;;40.08;22.50;;;;;;;16.74;48.35;100663.75;6189911;23;20024;-81
2021/04/01 19:37:21;;;;;;;41.42;23.15;;;;;;;16.55;49.27;100671.25;6215501;23;20032;-80
2021/04/01 19:39:47;;;;;;;38.13;22.38;;;;;;;16.41;49.82;100675.72;6213994;23;20131;-78
2021/04/01 19:42:16;;;;;;;36.78;21.52;;;;;;;16.27;50.83;100674.94;6215453;23;20056;-81
2021/04/01 19:44:47;;;;;;;37.05;21.08;;;;;;;16.17;51.42;100681.84;6190353;23;20028;-82
2021/04/01 19:47:14;;;;;;;32.03;20.27;;;;;;;16.01;51.81;100681.97;6217899;23;20043;-81
2021/04/01 19:49:42;;;;;;;34.22;19.23;;;;;;;15.87;52.45;100682.88;6217211;23;20048;-82
2021/04/01 19:52:10;;;;;;;32.97;19.02;;;;;;;15.73;53.12;100686.44;6193288;23;20056;-79
2021/04/01 19:54:37;;;;;;;27.35;17.27;;;;;;;15.67;53.44;100688.63;6192969;23;20024;-80
2021/04/01 19:57:08;;;;;;;27.67;16.48;;;;;;;15.57;53.47;100683.03;6219859;23;20028;-80
2021/04/01 19:59:35;;;;;;;25.95;14.98;;;;;;;15.48;54.02;100686.22;6219154;23;20048;-81
2021/04/01 20:02:02;;;;;;;25.15;14.48;;;;;;;15.36;54.30;100692.31;6218892;23;20123;-80
2021/04/01 20:04:28;;;;;;;23.67;13.23;;;;;;;15.25;54.73;100701.00;6219654;23;20103;-81
2021/04/01 20:06:57;;;;;;;21.42;12.90;;;;;;;15.17;54.80;100694.41;6220439;23;20453;-81
2021/04/01 20:09:24;;;;;;;20.23;11.57;;;;;;;15.11;55.19;100694.81;6221993;23;20028;-87
2021/04/01 20:11:51;;;;;;;22.20;11.35;;;;;;;15.04;55.44;100697.81;6229762;23;20036;-81
2021/04/01 20:14:19;;;;;;;19.92;10.95;;;;;;;15.00;55.03;100704.28;6223116;23;20028;-82
2021/04/01 20:16:47;;;;;;;18.58;10.82;;;;;;;14.92;55.19;100709.25;6227851;23;20028;-79
2021/04/01 20:19:17;;;;;;;17.77;10.27;;;;;;;14.87;55.70;100713.13;6226590;23;20308;-83
2021/04/01 20:21:44;;;;;;;18.25;10.10;;;;;;;14.78;55.65;100709.22;6228236;23;20076;-80
2021/04/01 20:24:10;;;;;;;14.50;10.13;;;;;;;14.72;55.96;100714.88;6227384;23;20052;-80
2021/04/01 20:26:38;;;;;;;17.25;8.95;;;;;;;14.68;55.89;100716.00;6228411;23;20024;-80
2021/04/01 20:29:05;;;;;;;16.77;8.70;;;;;;;14.64;56.19;100719.78;6226358;23;20035;-82
2021/04/01 20:31:32;;;;;;;14.15;8.52;;;;;;;14.57;56.18;100724.66;6228218;23;20032;-79
2021/04/01 20:33:58;;;;;;;12.48;7.82;;;;;;;14.51;56.76;100734.78;6229198;23;20391;-79
2021/04/01 20:36:24;;;;;;;13.77;8.35;;;;;;;14.44;56.48;100734.31;6224805;23;20123;-81
2021/04/01 20:38:52;;;;;;;12.55;8.10;;;;;;;14.34;56.86;100744.56;6220825;23;20056;-81
2021/04/01 20:41:19;;;;;;;13.05;7.85;;;;;;;14.21;57.07;100738.22;6222918;23;20020;-82
2021/04/01 20:43:45;;;;;;;14.77;8.13;;;;;;;14.14;57.55;100744.88;6227723;23;20039;-81
2021/04/01 20:46:12;;;;;;;13.90;7.50;;;;;;;14.07;57.52;100755.94;6227534;23;20036;-81
2021/04/01 20:48:39;;;;;;;13.32;6.93;;;;;;;13.98;57.05;100757.31;6226247;23;20032;-81
2021/04/01 20:51:05;;;;;;;10.10;5.88;;;;;;;13.91;57.21;100755.91;6221619;23;20066;-79
2021/04/01 20:53:32;;;;;;;13.30;6.55;;;;;;;13.87;56.36;100773.00;6216350;23;20056;-79
2021/04/01 20:56:00;;;;;;;10.20;5.65;;;;;;;13.82;56.52;100777.72;6215598;23;20057;-80
2021/04/01 20:58:28;;;;;;;8.60;5.70;;;;;;;13.77;56.42;100772.66;6214624;23;20020;-79
2021/04/01 21:00:57;;;;;;;9.88;5.18;;;;;;;13.76;56.46;100783.38;6218832;23;20017;-82
2021/04/01 21:03:29;;;;;;;8.98;5.30;;;;;;;13.68;56.31;100779.34;6217106;23;20047;-81
2021/04/01 21:05:55;;;;;;;9.35;5.53;;;;;;;13.64;55.97;100785.75;6216318;23;20055;-81
2021/04/01 21:08:25;;;;;;;8.98;5.22;;;;;;;13.59;56.24;100794.91;6215198;23;20048;-80
2021/04/01 21:10:54;;;;;;;10.20;4.88;;;;;;;13.52;56.32;100804.19;6217701;23;20096;-80
2021/04/01 21:13:22;;;;;;;9.10;5.03;;;;;;;13.43;55.81;100804.63;6216762;23;20024;-84
2021/04/01 21:15:50;;;;;;;9.90;4.38;;;;;;;13.32;56.12;100808.72;6186926;23;20056;-80
2021/04/01 21:18:22;;;;;;;10.88;4.50;;;;;;;13.22;55.12;100817.28;6214863;23;20068;-81
2021/04/01 21:20:51;;;;;;;7.57;4.35;;;;;;;13.09;55.08;100809.00;6216212;23;20031;-80
2021/04/01 21:23:18;;;;;;;12.60;4.07;;;;;;;13.03;54.38;100819.97;6219151;23;20024;-81
2021/04/01 21:25:48;;;;;;;8.40;4.00;;;;;;;12.94;53.77;100807.97;6215692;23;20104;-80
2021/04/01 21:28:19;;;;;;;8.52;4.35;;;;;;;12.89;53.18;100815.34;6214584;23;20031;-83
2021/04/01 21:30:52;;;;;;;5.88;3.63;;;;;;;12.85;53.08;100824.41;6212894;23;20083;-79
2021/04/01 21:33:24;;;;;;;8.80;4.20;;;;;;;12.76;52.45;100816.88;6217208;23;20132;-81
2021/04/01 21:35:51;;;;;;;7.13;3.70;;;;;;;12.69;52.65;100812.81;6216775;23;20013;-80
2021/04/01 21:38:21;;;;;;;8.70;3.55;;;;;;;12.59;52.09;100809.72;6190730;23;20075;-81
2021/04/01 21:40:49;;;;;;;6.18;3.60;;;;;;;12.56;52.36;100819.66;6217201;23;20056;-79
2021/04/01 21:43:16;;;;;;;7.25;3.67;;;;;;;12.52;50.99;100810.09;6221615;23;20024;-83
2021/04/01 21:45:43;;;;;;;8.70;3.88;;;;;;;12.46;51.35;100815.69;6226358;23;20076;-81
2021/04/01 21:48:15;;;;;;;9.77;3.80;;;;;;;12.42;50.94;100824.78;6199663;23;20076;-80
2021/04/01 21:50:43;;;;;;;8.27;3.95;;;;;;;12.34;50.82;100834.88;6224981;23;20017;-80
2021/04/01 21:53:10;;;;;;;7.10;3.60;;;;;;;12.25;51.38;100834.41;6219487;23;20116;-80
2021/04/01 21:55:37;;;;;;;8.80;3.60;;;;;;;12.22;50.37;100839.84;6216282;23;20020;-79
2021/04/01 21:58:05;;;;;;;4.93;3.80;;;;;;;12.16;50.96;100836.59;6214439;23;20220;-80
2021/04/01 22:00:35;;;;;;;8.80;3.83;;;;;;;12.20;50.13;100843.50;6216249;23;20119;-80
2021/04/01 22:03:04;;;;;;;7.55;3.42;;;;;;;12.11;50.00;100838.63;6214813;23;20828;-80
2021/04/01 22:05:31;;;;;;;7.53;3.90;;;;;;;12.00;50.16;100836.44;6215009;23;20035;-82
2021/04/01 22:08:03;;;;;;;10.25;4.00;;;;;;;12.01;50.31;100858.53;6212964;23;20021;-80
2021/04/01 22:10:39;;;;;;;8.57;3.60;;;;;;;11.96;50.06;100863.22;6214435;23;20103;-82
2021/04/01 22:13:09;;;;;;;9.70;3.90;;;;;;;11.88;50.08;100871.50;6218347;23;20389;-81
2021/04/01 22:15:35;;;;;;;6.28;3.30;;;;;;;11.76;50.18;100880.03;6215093;23;20046;-81
2021/04/01 22:18:07;;;;;;;5.72;3.35;;;;;;;11.64;49.99;100876.09;6215221;23;20028;-79
2021/04/01 22:20:36;;;;;;;6.85;3.25;;;;;;;11.60;49.97;100880.66;6215153;23;20060;-80
2021/04/01 22:23:18;;;;;;;5.93;3.10;;;;;;;11.51;49.37;100878.38;6217766;23;20051;-80
2021/04/01 22:25:44;;;;;;;5.32;3.10;;;;;;;11.47;49.27;100881.25;6220799;23;20017;-80
2021/04/01 22:28:14;;;;;;;5.97;3.00;;;;;;;11.32;49.56;100868.66;6218883;23;20107;-82
2021/04/01 22:30:56;;;;;;;5.97;2.80;;;;;;;11.29;48.44;100896.16;6195001;23;20020;-80
2021/04/01 22:33:25;;;;;;;8.30;2.92;;;;;;;11.15;48.49;100893.22;6223657;23;20048;-80
2021/04/01 22:35:51;;;;;;;5.90;2.55;;;;;;;11.04;48.28;100893.63;6226957;23;20020;-81
2021/04/01 22:38:42;;;;;;;6.43;2.92;;;;;;;10.95;48.42;100896.69;6220791;23;20083;-79
2021/04/01 22:41:13;;;;;;;5.40;3.00;;;;;;;10.75;48.89;100904.53;6183831;23;20051;-81
2021/04/01 22:43:39;;;;;;;10.48;3.25;;;;;;;10.54;49.14;100916.88;6231747;23;20028;-79
2021/04/01 22:46:08;;;;;;;7.50;2.58;;;;;;;10.38;50.14;100918.38;6236094;23;20019;-79
2021/04/01 22:48:35;;;;;;;4.90;2.97;;;;;;;10.32;50.06;100918.59;6238274;23;20024;-79
2021/04/01 22:51:03;;;;;;;5.35;2.30;;;;;;;10.27;49.94;100916.09;6240288;23;20019;-79
2021/04/01 22:53:29;;;;;;;5.63;2.80;;;;;;;10.15;50.71;100917.41;6240498;23;20025;-80
2021/04/01 22:55:56;;;;;;;6.18;3.00;;;;;;;10.07;51.00;100911.50;6231327;23;20031;-80
2021/04/01 22:58:27;;;;;;;7.00;3.00;;;;;;;10.03;51.59;100919.63;6217979;23;20446;-79
2021/04/01 23:00:54;;;;;;;;;;;;;;;10.01;52.04;100924.13;6214893;23;20029;-80
2021/04/01 23:03:23;;;;;;;6.18;3.30;;;;;;;9.94;52.54;100918.16;6214735;23;19947;-80
2021/04/01 23:05:50;;;;;;;6.88;3.50;;;;;;;9.88;52.87;100926.34;6213673;23;20158;-78
2021/04/01 23:08:17;;;;;;;7.55;3.50;;;;;;;9.77;53.54;100926.69;6212854;23;20104;-79
2021/04/01 23:10:45;;;;;;;8.23;3.20;;;;;;;9.66;54.39;100925.34;6211281;23;20387;-78
2021/04/01 23:13:12;;;;;;;8.00;4.13;;;;;;;9.55;54.47;100922.22;6210588;23;20021;-82
2021/04/01 23:15:46;;;;;;;5.95;3.45;;;;;;;9.44;55.09;100923.44;6183790;23;20179;-81
2021/04/01 23:18:15;;;;;;;9.10;3.55;;;;;;;9.43;55.33;100916.44;6211012;23;20100;-80
2021/04/01 23:20:42;;;;;;;8.15;3.35;;;;;;;9.44;54.94;100919.97;6186511;23;20123;-80
2021/04/01 23:23:09;;;;;;;7.50;3.95;;;;;;;9.38;55.41;100910.44;6211920;23;20091;-80
2021/04/01 23:25:36;;;;;;;7.60;3.55;;;;;;;9.40;55.12;100913.03;6213817;23;20066;-79
2021/04/01 23:28:04;;;;;;;9.00;3.80;;;;;;;9.32;55.66;100915.94;6211338;23;20116;-82
2021/04/01 23:30:33;;;;;;;7.05;3.75;;;;;;;9.24;55.37;100898.63;6211324;23;20095;-80
2021/04/01 23:33:03;;;;;;;8.38;3.40;;;;;;;9.28;55.61;100914.31;6213143;23;20049;-81
2021/04/01 23:35:32;;;;;;;9.65;4.10;;;;;;;9.26;55.95;100915.28;6213169;23;20036;-81
2021/04/01 23:37:59;;;;;;;5.57;4.03;;;;;;;9.15;56.53;100908.56;6212223;23;20529;-83